createdAt,value
2022-12-23T00:00:13.179Z,26.53
2022-12-23T00:01:16.764Z,28.26
2022-12-23T00:02:18.841Z,28.14
2022-12-23T00:03:21.589Z,27.82
2022-12-23T00:04:23.797Z,28.00
2022-12-23T00:05:25.784Z,27.51
2022-12-23T00:06:28.028Z,27.76
2022-12-23T00:07:30.122Z,27.67
2022-12-23T00:08:34.036Z,27.63
2022-12-23T00:09:36.822Z,26.75
2022-12-23T00:10:40.579Z,26.81
2022-12-23T00:11:42.526Z,26.02
2022-12-23T00:12:44.505Z,24.79
2022-12-23T00:13:46.516Z,24.53
2022-12-23T00:14:48.464Z,26.73
2022-12-23T00:15:50.733Z,26.21
2022-12-23T00:16:53.099Z,25.19
2022-12-23T00:17:55.513Z,26.61
2022-12-23T00:18:57.642Z,25.25
2022-12-23T00:20:00.211Z,24.85
2022-12-23T00:21:08.909Z,26.26
2022-12-23T00:22:09.859Z,26.84
2022-12-23T00:23:12.502Z,26.59
2022-12-23T00:24:14.433Z,28.68
2022-12-23T00:25:16.774Z,29.21
2022-12-23T00:26:23.083Z,31.69
2022-12-23T00:27:25.442Z,29.00
2022-12-23T00:28:28.745Z,30.35
2022-12-23T00:29:30.833Z,35.09
2022-12-23T00:30:33.104Z,37.68
2022-12-23T00:31:35.026Z,30.97
2022-12-23T00:32:36.991Z,27.64
2022-12-23T00:33:41.383Z,27.33
2022-12-23T00:34:43.326Z,26.27
2022-12-23T00:35:45.898Z,25.17
2022-12-23T00:36:48.122Z,26.89
2022-12-23T00:37:50.826Z,26.27
2022-12-23T00:38:53.397Z,25.01
2022-12-23T00:39:56.307Z,24.00
2022-12-23T00:40:59.253Z,25.61
2022-12-23T00:42:01.226Z,26.27
2022-12-23T00:43:03.105Z,29.16
2022-12-23T00:44:05.192Z,28.75
2022-12-23T00:45:09.677Z,28.08
2022-12-23T00:46:11.790Z,25.64
2022-12-23T00:47:13.878Z,25.81
2022-12-23T00:48:15.978Z,23.17
2022-12-23T00:49:19.251Z,23.55
2022-12-23T00:50:21.262Z,25.27
2022-12-23T00:51:23.140Z,23.06
2022-12-23T00:52:25.279Z,24.02
2022-12-23T00:53:27.378Z,24.64
2022-12-23T00:54:29.451Z,23.41
2022-12-23T00:55:32.117Z,24.03
2022-12-23T00:56:34.224Z,24.25
2022-12-23T00:57:37.023Z,24.59
2022-12-23T00:58:38.889Z,23.83
2022-12-23T00:59:40.782Z,24.48
2022-12-23T01:00:44.567Z,23.90
2022-12-23T01:01:46.770Z,22.66
2022-12-23T01:02:48.848Z,23.17
2022-12-23T01:03:50.876Z,24.71
2022-12-23T01:04:52.749Z,23.89
2022-12-23T01:05:59.691Z,23.99
2022-12-23T01:07:02.835Z,23.69
2022-12-23T01:08:10.659Z,23.55
2022-12-23T01:09:12.990Z,22.44
2022-12-23T01:10:15.745Z,23.47
2022-12-23T01:11:17.733Z,24.80
2022-12-23T01:12:19.780Z,23.74
2022-12-23T01:13:21.751Z,23.80
2022-12-23T01:14:24.042Z,23.43
2022-12-23T01:15:26.480Z,22.35
2022-12-23T01:16:28.483Z,23.27
2022-12-23T01:17:30.459Z,22.85
2022-12-23T01:18:35.257Z,22.27
2022-12-23T01:19:38.012Z,25.18
2022-12-23T01:20:40.527Z,24.31
2022-12-23T01:21:42.408Z,23.37
2022-12-23T01:22:44.573Z,22.96
2022-12-23T01:23:46.687Z,23.44
2022-12-23T01:24:48.678Z,24.08
2022-12-23T01:27:09.044Z,23.66
2022-12-23T01:28:11.795Z,23.09
2022-12-23T01:29:13.684Z,24.15
2022-12-23T01:30:15.932Z,23.35
2022-12-23T01:31:17.955Z,22.70
2022-12-23T01:32:20.219Z,24.55
2022-12-23T01:33:22.520Z,25.35
2022-12-23T01:34:31.064Z,22.87
2022-12-23T01:35:30.180Z,23.09
2022-12-23T01:36:33.102Z,24.21
2022-12-23T01:37:35.005Z,24.55
2022-12-23T01:38:37.110Z,23.76
2022-12-23T01:39:39.173Z,24.95
2022-12-23T01:40:43.829Z,25.68
2022-12-23T01:41:46.650Z,25.19
2022-12-23T01:42:49.449Z,23.39
2022-12-23T01:43:51.665Z,26.65
2022-12-23T01:45:20.127Z,24.93
2022-12-23T01:46:22.266Z,24.89
2022-12-23T01:47:28.117Z,23.05
2022-12-23T01:48:31.234Z,25.31
2022-12-23T01:49:33.822Z,24.09
2022-12-23T01:50:45.967Z,23.39
2022-12-23T01:51:48.438Z,24.62
2022-12-23T01:53:15.298Z,24.97
2022-12-23T01:54:17.595Z,25.16
2022-12-23T01:55:23.301Z,24.09
2022-12-23T01:56:29.256Z,23.97
2022-12-23T01:57:31.895Z,25.76
2022-12-23T01:58:43.484Z,26.47
2022-12-23T01:59:45.915Z,25.75
2022-12-23T02:00:48.229Z,25.50
2022-12-23T02:01:50.217Z,23.74
2022-12-23T02:02:53.096Z,25.11
2022-12-23T02:04:02.136Z,25.85
2022-12-23T02:05:04.717Z,23.78
2022-12-23T02:06:09.461Z,23.52
2022-12-23T02:07:12.656Z,24.42
2022-12-23T02:08:16.097Z,25.73
2022-12-23T02:09:29.624Z,24.91
2022-12-23T02:10:39.055Z,24.84
2022-12-23T02:11:59.328Z,25.32
2022-12-23T02:13:17.387Z,24.73
2022-12-23T02:14:28.542Z,24.77
2022-12-23T02:15:40.344Z,25.27
2022-12-23T02:16:46.158Z,23.03
2022-12-23T02:17:58.018Z,23.97
2022-12-23T02:19:07.049Z,25.90
2022-12-23T02:20:27.959Z,26.01
2022-12-23T02:21:52.119Z,26.29
2022-12-23T02:23:06.691Z,25.67
2022-12-23T02:24:32.503Z,26.65
2022-12-23T02:26:12.225Z,24.92
2022-12-23T02:27:27.207Z,24.23
2022-12-23T02:29:04.757Z,25.28
2022-12-23T02:30:26.335Z,25.47
2022-12-23T02:31:38.263Z,25.80
2022-12-23T02:33:07.067Z,25.27
2022-12-23T02:34:41.691Z,25.59
2022-12-23T02:36:05.372Z,25.92
2022-12-23T02:37:44.866Z,25.83
2022-12-23T02:39:11.028Z,27.46
2022-12-23T02:40:33.556Z,27.88
2022-12-23T02:41:54.705Z,28.08
2022-12-23T02:43:03.493Z,27.76
2022-12-23T02:44:15.418Z,28.68
2022-12-23T02:45:30.426Z,30.29
2022-12-23T02:46:39.411Z,29.70
2022-12-23T02:47:48.185Z,28.92
2022-12-23T02:49:03.267Z,30.42
2022-12-23T02:50:18.077Z,28.54
2022-12-23T02:51:22.032Z,29.77
2022-12-23T02:52:27.735Z,29.42
2022-12-23T02:53:39.260Z,30.17
2022-12-23T02:55:55.699Z,28.89
2022-12-23T02:57:01.178Z,30.04
2022-12-23T02:58:06.857Z,28.99
2022-12-23T02:59:18.708Z,28.78
2022-12-23T03:00:21.489Z,27.21
2022-12-23T03:01:28.039Z,26.55
2022-12-23T03:02:33.605Z,26.09
2022-12-23T03:03:37.251Z,25.64
2022-12-23T03:04:40.243Z,24.72
2022-12-23T03:08:09.123Z,25.50
2022-12-23T03:09:14.885Z,25.89
2022-12-23T03:10:38.865Z,24.51
2022-12-23T03:11:47.212Z,24.09
2022-12-23T03:12:52.888Z,25.66
2022-12-23T03:14:17.098Z,25.50
2022-12-23T03:15:48.945Z,24.96
2022-12-23T03:18:16.649Z,25.32
2022-12-23T03:22:19.315Z,24.51
2022-12-23T03:23:24.993Z,26.71
2022-12-23T03:24:50.822Z,27.32
2022-12-23T03:26:02.723Z,28.75
2022-12-23T03:27:11.695Z,27.29
2022-12-23T03:28:17.411Z,29.11
2022-12-23T03:29:25.950Z,27.20
2022-12-23T03:30:30.015Z,26.62
2022-12-23T03:31:34.981Z,27.32
2022-12-23T03:32:53.344Z,27.54
2022-12-23T03:34:05.285Z,27.63
2022-12-23T03:35:10.480Z,29.39
2022-12-23T03:36:16.255Z,26.90
2022-12-23T03:37:21.904Z,27.61
2022-12-23T03:38:25.435Z,26.26
2022-12-23T03:39:31.114Z,26.42
2022-12-23T03:40:39.901Z,26.68
2022-12-23T03:41:45.667Z,26.81
2022-12-23T03:42:51.425Z,27.91
2022-12-23T03:46:30.811Z,28.79
2022-12-23T03:47:36.634Z,26.53
2022-12-23T03:51:17.048Z,27.19
2022-12-23T03:52:22.740Z,28.13
2022-12-23T03:53:34.666Z,27.25
2022-12-23T03:54:40.600Z,26.36
2022-12-23T03:55:46.289Z,25.83
2022-12-23T03:56:55.907Z,26.64
2022-12-23T03:58:01.707Z,26.97
2022-12-23T03:59:16.262Z,28.16
2022-12-23T04:00:18.560Z,26.84
2022-12-23T04:01:27.278Z,29.51
2022-12-23T04:02:33.376Z,28.81
2022-12-23T04:03:39.289Z,27.90
2022-12-23T04:04:54.794Z,28.40
2022-12-23T04:06:00.598Z,28.48
2022-12-23T04:07:12.281Z,27.27
2022-12-23T04:08:18.056Z,27.24
2022-12-23T04:09:22.736Z,27.22
2022-12-23T04:10:26.192Z,27.09
2022-12-23T04:11:29.241Z,29.61
2022-12-23T04:12:31.726Z,26.36
2022-12-23T04:13:34.296Z,28.97
2022-12-23T04:14:40.213Z,28.26
2022-12-23T04:15:42.850Z,28.26
2022-12-23T04:16:46.355Z,27.47
2022-12-23T04:17:49.894Z,27.83
2022-12-23T04:18:51.997Z,28.04
2022-12-23T04:19:54.899Z,28.00
2022-12-23T04:20:58.111Z,28.07
2022-12-23T04:22:00.004Z,26.64
2022-12-23T04:23:02.803Z,29.23
2022-12-23T04:24:05.731Z,27.73
2022-12-23T04:25:09.118Z,27.84
2022-12-23T04:26:11.729Z,28.13
2022-12-23T04:27:16.171Z,27.49
2022-12-23T04:28:18.397Z,28.76
2022-12-23T04:29:20.446Z,27.19
2022-12-23T04:30:25.517Z,28.29
2022-12-23T04:31:26.402Z,27.24
2022-12-23T04:32:28.339Z,29.25
2022-12-23T04:33:30.362Z,28.98
2022-12-23T04:34:32.574Z,28.16
2022-12-23T04:35:35.052Z,29.07
2022-12-23T04:36:38.332Z,29.32
2022-12-23T04:37:40.346Z,26.52
2022-12-23T04:38:42.366Z,26.01
2022-12-23T04:39:44.264Z,26.65
2022-12-23T04:40:46.449Z,26.91
2022-12-23T04:41:49.257Z,26.04
2022-12-23T04:42:53.325Z,26.41
2022-12-23T04:43:55.621Z,26.43
2022-12-23T04:44:58.081Z,26.73
2022-12-23T04:46:00.104Z,27.10
2022-12-23T04:47:02.058Z,27.08
2022-12-23T04:48:05.132Z,28.63
2022-12-23T04:49:07.392Z,27.58
2022-12-23T04:50:15.477Z,27.75
2022-12-23T04:51:18.654Z,28.06
2022-12-23T04:52:20.871Z,27.90
2022-12-23T04:53:22.928Z,27.74
2022-12-23T04:54:24.909Z,28.50
2022-12-23T04:55:26.910Z,26.99
2022-12-23T04:56:28.904Z,26.95
2022-12-23T04:57:30.793Z,26.36
2022-12-23T04:58:32.789Z,28.72
2022-12-23T04:59:34.758Z,28.14
2022-12-23T05:00:39.774Z,28.17
2022-12-23T05:01:42.753Z,28.11
2022-12-23T05:02:44.970Z,27.89
2022-12-23T05:03:47.535Z,28.79
2022-12-23T05:04:49.616Z,26.57
2022-12-23T05:05:51.492Z,27.41
2022-12-23T05:06:53.716Z,29.15
2022-12-23T05:08:04.688Z,28.19
2022-12-23T05:09:07.116Z,26.81
2022-12-23T05:10:10.333Z,28.97
2022-12-23T05:11:12.335Z,27.26
2022-12-23T05:12:14.232Z,27.55
2022-12-23T05:13:16.323Z,27.21
2022-12-23T05:14:18.261Z,30.55
2022-12-23T05:15:20.130Z,27.77
2022-12-23T05:16:22.365Z,30.67
2022-12-23T05:17:24.632Z,28.43
2022-12-23T05:18:26.648Z,30.27
2022-12-23T05:19:28.644Z,29.92
2022-12-23T05:20:30.755Z,29.10
2022-12-23T05:21:32.699Z,29.91
2022-12-23T05:22:34.664Z,30.81
2022-12-23T05:23:38.311Z,29.95
2022-12-23T05:24:40.193Z,29.16
2022-12-23T05:25:42.318Z,28.75
2022-12-23T05:26:48.050Z,29.85
2022-12-23T05:27:53.673Z,30.06
2022-12-23T05:28:56.446Z,29.37
2022-12-23T05:29:58.525Z,29.84
2022-12-23T05:32:13.918Z,28.77
2022-12-23T05:33:16.245Z,30.29
2022-12-23T05:34:18.383Z,29.15
2022-12-23T05:35:21.293Z,29.18
2022-12-23T05:36:24.500Z,30.24
2022-12-23T05:37:26.633Z,29.49
2022-12-23T05:38:28.669Z,28.82
2022-12-23T05:39:30.536Z,29.81
2022-12-23T05:40:33.955Z,28.31
2022-12-23T05:41:36.400Z,30.71
2022-12-23T05:42:38.252Z,27.34
2022-12-23T05:43:40.164Z,29.99
2022-12-23T05:44:42.146Z,29.65
2022-12-23T05:45:44.313Z,28.89
2022-12-23T05:46:46.650Z,28.85
2022-12-23T05:47:48.602Z,29.12
2022-12-23T08:59:02.755Z,31.01
2022-12-23T09:00:06.734Z,32.61
2022-12-23T09:01:11.401Z,30.82
2022-12-23T09:02:13.714Z,31.01
2022-12-23T09:03:16.064Z,30.10
2022-12-23T09:04:18.144Z,29.04
2022-12-23T09:05:20.013Z,29.36
2022-12-23T09:08:37.999Z,27.21
2022-12-23T09:09:40.119Z,28.76
2022-12-23T09:10:43.546Z,29.07
2022-12-23T09:11:45.684Z,28.87
2022-12-23T09:12:47.616Z,27.17
2022-12-23T09:13:50.470Z,28.64
2022-12-23T09:14:52.825Z,28.47
2022-12-23T09:15:57.270Z,28.07
2022-12-23T09:17:00.334Z,28.26
2022-12-23T09:18:03.113Z,28.61
2022-12-23T09:19:06.086Z,27.43
2022-12-23T09:20:10.051Z,26.07
2022-12-23T09:21:15.126Z,26.96
2022-12-23T09:22:17.078Z,25.92
2022-12-23T09:23:18.961Z,25.26
2022-12-23T09:24:20.859Z,25.47
2022-12-23T09:25:23.069Z,25.22
2022-12-23T09:26:28.794Z,24.09
2022-12-23T09:27:30.762Z,26.04
2022-12-23T09:28:33.147Z,23.26
2022-12-23T09:29:35.255Z,25.73
2022-12-23T09:30:37.392Z,24.46
2022-12-23T09:31:39.582Z,23.37
2022-12-23T09:32:44.838Z,24.61
2022-12-23T09:33:49.936Z,26.01
2022-12-23T09:34:51.971Z,24.80
2022-12-23T09:35:57.800Z,24.05
2022-12-23T09:36:59.833Z,24.44
2022-12-23T09:38:04.189Z,24.31
2022-12-23T09:39:06.114Z,24.18
2022-12-23T09:40:13.428Z,24.97
2022-12-23T09:41:20.160Z,25.52
2022-12-23T09:42:34.672Z,26.48
2022-12-23T09:46:24.425Z,25.86
2022-12-23T09:47:28.977Z,26.31
2022-12-23T09:48:37.833Z,28.24
2022-12-23T09:49:43.746Z,29.39
2022-12-23T09:50:46.489Z,30.18
2022-12-23T09:51:50.830Z,29.08
2022-12-23T09:53:05.600Z,27.32
2022-12-23T09:54:17.752Z,27.67
2022-12-23T09:55:23.031Z,26.62
2022-12-23T09:56:28.799Z,27.93
2022-12-23T09:57:40.519Z,30.10
2022-12-23T09:59:06.895Z,29.61
2022-12-23T10:00:18.241Z,32.13
2022-12-23T10:01:32.533Z,29.03
2022-12-23T10:02:41.499Z,29.06
2022-12-23T10:04:10.670Z,28.91
2022-12-23T10:05:28.621Z,29.21
2022-12-23T10:06:33.707Z,29.11
2022-12-23T10:07:51.258Z,28.84
2022-12-23T10:08:57.209Z,31.71
2022-12-23T10:10:03.098Z,29.76
2022-12-23T10:11:08.896Z,28.69
2022-12-23T10:12:21.030Z,30.26
2022-12-23T10:13:28.391Z,30.94
2022-12-23T10:14:33.483Z,30.49
2022-12-23T10:15:39.528Z,29.73
2022-12-23T10:16:57.735Z,30.09
2022-12-23T10:18:04.084Z,30.97
2022-12-23T10:19:09.891Z,32.03
2022-12-23T10:20:18.925Z,30.66
2022-12-23T10:21:47.307Z,30.28
2022-12-23T10:22:46.887Z,31.14
2022-12-23T10:23:52.737Z,30.42
2022-12-23T10:24:57.713Z,29.03
2022-12-23T10:26:02.712Z,30.53
2022-12-23T10:27:20.720Z,31.90
2022-12-23T10:28:23.049Z,34.28
2022-12-23T10:29:32.510Z,31.45
2022-12-23T10:31:54.284Z,29.52
2022-12-23T10:33:21.485Z,28.44
2022-12-23T10:36:53.857Z,30.36
2022-12-23T10:38:02.711Z,29.47
2022-12-23T10:39:25.345Z,28.67
2022-12-23T10:40:48.003Z,29.34
2022-12-23T10:42:18.170Z,30.29
2022-12-23T10:43:30.087Z,28.79
2022-12-23T10:44:58.717Z,28.69
2022-12-23T10:46:10.510Z,29.92
2022-12-23T10:47:50.149Z,28.16
2022-12-23T10:49:05.121Z,33.03
2022-12-23T10:50:29.242Z,31.93
2022-12-23T10:51:46.887Z,29.82
2022-12-23T10:52:52.295Z,28.85
2022-12-23T10:54:10.190Z,31.64
2022-12-23T10:55:31.347Z,29.03
2022-12-23T10:56:30.434Z,33.21
2022-12-23T10:57:33.397Z,33.13
2022-12-23T10:58:42.554Z,34.87
2022-12-23T10:59:44.987Z,37.93
2022-12-23T11:00:51.780Z,33.93
2022-12-23T11:02:13.610Z,33.03
2022-12-23T11:03:28.812Z,31.21
2022-12-23T11:04:40.858Z,32.83
2022-12-23T11:05:44.925Z,31.44
2022-12-23T11:06:55.881Z,32.13
2022-12-23T11:07:56.025Z,33.03
2022-12-23T11:09:01.624Z,35.28
2022-12-23T11:10:19.495Z,31.78
2022-12-23T11:11:21.766Z,32.78
2022-12-23T11:12:26.640Z,32.95
2022-12-23T11:13:38.465Z,32.83
2022-12-23T11:14:55.457Z,31.45
2022-12-23T11:16:16.529Z,31.55
2022-12-23T11:17:30.294Z,31.41
2022-12-23T11:18:35.100Z,31.54
2022-12-23T11:19:36.098Z,31.44
2022-12-23T11:20:44.309Z,32.03
2022-12-23T11:21:56.143Z,30.82
2022-12-23T11:23:00.694Z,33.74
2022-12-23T11:24:20.568Z,33.55
2022-12-23T11:25:42.991Z,36.31
2022-12-23T11:26:49.409Z,33.22
2022-12-23T11:28:16.665Z,32.64
2022-12-23T11:29:25.362Z,30.06
2022-12-23T11:30:29.299Z,30.64
2022-12-23T11:31:33.494Z,32.25
2022-12-23T11:32:37.019Z,31.56
2022-12-23T11:34:00.947Z,32.48
2022-12-23T11:35:03.548Z,30.84
2022-12-23T11:36:16.629Z,31.17
2022-12-23T11:37:30.874Z,28.91
2022-12-23T11:38:36.523Z,31.54
2022-12-23T11:39:40.903Z,32.64
2022-12-23T11:40:46.030Z,30.84
2022-12-23T11:41:51.497Z,30.88
2022-12-23T11:45:27.248Z,30.76
2022-12-23T11:46:32.867Z,30.54
2022-12-23T11:47:39.612Z,32.33
2022-12-23T11:48:42.047Z,30.98
2022-12-23T11:49:50.517Z,31.17
2022-12-23T11:53:24.282Z,31.54
2022-12-23T11:54:26.855Z,32.09
2022-12-23T11:55:31.399Z,31.37
2022-12-23T11:56:39.501Z,32.03
2022-12-23T11:57:47.977Z,30.83
2022-12-23T11:59:03.005Z,30.48
2022-12-23T12:00:08.688Z,31.13
2022-12-23T12:01:19.962Z,32.18
2022-12-23T12:02:38.059Z,33.39
2022-12-23T12:03:46.489Z,32.19
2022-12-23T12:04:52.234Z,32.51
2022-12-23T12:05:58.288Z,32.18
2022-12-23T12:07:03.157Z,33.37
2022-12-23T12:08:08.265Z,32.62
2022-12-23T12:09:12.745Z,33.43
2022-12-23T12:10:22.396Z,32.83
2022-12-23T12:11:27.421Z,31.24
2022-12-23T12:12:30.269Z,31.03
2022-12-23T12:13:38.882Z,30.24
2022-12-23T12:14:50.677Z,30.22
2022-12-23T12:15:57.248Z,29.94
2022-12-23T12:17:05.949Z,31.12
2022-12-23T12:18:11.759Z,31.59
2022-12-23T12:19:34.536Z,31.16
2022-12-23T12:20:40.299Z,29.35
2022-12-23T12:21:45.244Z,30.51
2022-12-23T12:22:53.779Z,30.91
2022-12-23T12:24:18.509Z,30.21
2022-12-23T12:27:38.504Z,30.74
2022-12-23T12:28:44.145Z,29.85
2022-12-23T12:29:53.952Z,31.32
2022-12-23T12:31:22.804Z,29.83
2022-12-23T12:32:28.771Z,31.73
2022-12-23T12:33:34.594Z,30.05
2022-12-23T12:37:08.314Z,30.79
2022-12-23T12:38:26.318Z,30.38
2022-12-23T12:39:32.097Z,30.49
2022-12-23T12:40:44.000Z,28.57
2022-12-23T12:41:49.673Z,30.76
2022-12-23T12:43:00.956Z,31.26
2022-12-23T12:44:25.696Z,30.81
2022-12-23T12:45:43.678Z,32.82
2022-12-23T12:47:21.885Z,32.37
2022-12-23T12:48:21.130Z,35.05
2022-12-23T12:52:04.931Z,31.33
2022-12-23T12:53:14.096Z,30.91
2022-12-23T12:54:22.666Z,31.90
2022-12-23T12:55:31.359Z,33.03
2022-12-23T12:56:52.542Z,32.61
2022-12-23T12:57:54.824Z,31.01
2022-12-23T12:58:57.843Z,32.00
2022-12-23T13:00:06.238Z,32.31
2022-12-23T13:01:22.904Z,32.53
2022-12-23T13:02:37.607Z,30.84
2022-12-23T13:04:01.115Z,30.61
2022-12-23T13:05:19.219Z,36.99
2022-12-23T13:06:46.668Z,40.73
2022-12-23T13:08:26.247Z,37.69
2022-12-23T13:09:47.262Z,37.65
2022-12-23T13:11:03.347Z,35.70
2022-12-23T13:12:24.274Z,37.37
2022-12-23T13:15:12.911Z,37.17
2022-12-23T13:16:35.357Z,35.27
2022-12-23T13:17:53.143Z,36.14
2022-12-23T13:19:11.237Z,36.87
2022-12-23T13:23:42.263Z,36.55
2022-12-23T13:24:34.801Z,37.57
2022-12-23T13:25:40.479Z,38.40
2022-12-23T13:27:05.940Z,40.31
2022-12-23T13:28:29.006Z,42.75
2022-12-23T13:29:58.325Z,47.49
2022-12-23T13:31:06.673Z,52.26
2022-12-23T13:32:41.699Z,49.31
2022-12-23T13:35:23.805Z,42.48
2022-12-23T13:36:41.548Z,42.38
2022-12-23T13:37:59.332Z,40.28
2022-12-23T13:39:05.071Z,41.19
2022-12-23T13:40:23.276Z,41.88
2022-12-23T13:41:38.245Z,39.64
2022-12-23T13:42:43.902Z,41.74
2022-12-23T13:43:49.602Z,40.73
2022-12-23T13:44:52.737Z,38.96
2022-12-23T13:45:58.159Z,39.56
2022-12-23T13:47:06.881Z,40.22
2022-12-23T13:48:28.026Z,41.77
2022-12-23T13:49:58.528Z,40.35
2022-12-23T13:51:22.962Z,39.49
2022-12-23T13:52:40.721Z,40.09
2022-12-23T13:54:04.207Z,39.53
2022-12-23T13:55:23.746Z,39.34
2022-12-23T13:56:41.925Z,40.46
2022-12-23T13:58:03.826Z,39.07
2022-12-23T13:59:11.256Z,39.82
2022-12-23T14:00:20.085Z,40.54
2022-12-23T16:50:21.226Z,47.63
2022-12-23T16:51:26.037Z,50.18
2022-12-23T16:52:28.058Z,50.37
2022-12-23T16:53:29.955Z,51.53
2022-12-23T16:54:32.219Z,51.57
2022-12-23T16:55:34.260Z,51.65
2022-12-23T16:56:37.305Z,50.40
2022-12-23T16:57:39.454Z,48.86
2022-12-23T16:58:41.830Z,46.33
2022-12-23T16:59:43.728Z,44.87
2022-12-23T17:00:46.665Z,47.29
2022-12-23T17:01:50.121Z,47.41
2022-12-23T17:02:52.392Z,44.82
2022-12-23T17:03:54.358Z,45.59
2022-12-23T17:04:56.234Z,45.51
2022-12-23T17:05:58.436Z,42.76
2022-12-23T17:07:01.097Z,44.55
2022-12-23T17:08:03.297Z,44.13
2022-12-23T17:09:06.368Z,43.74
2022-12-23T17:10:09.731Z,44.49
2022-12-23T17:11:17.299Z,43.07
2022-12-23T17:12:19.724Z,45.95
2022-12-23T17:13:22.167Z,46.42
2022-12-23T17:14:24.971Z,46.54
2022-12-23T17:15:27.147Z,44.99
2022-12-23T17:16:29.292Z,44.16
2022-12-23T17:17:33.406Z,43.80
2022-12-23T17:18:35.472Z,45.64
2022-12-23T17:19:37.654Z,45.55
2022-12-23T17:20:40.911Z,45.43
2022-12-23T17:21:45.277Z,44.08
2022-12-23T17:22:50.989Z,45.00
2022-12-23T17:23:54.507Z,45.86
2022-12-23T17:24:56.499Z,43.80
2022-12-23T17:25:59.227Z,46.95
2022-12-23T17:27:01.885Z,46.56
2022-12-23T17:28:07.645Z,47.06
2022-12-23T17:29:11.389Z,44.86
2022-12-23T17:30:15.799Z,44.34
2022-12-23T17:31:26.576Z,44.67
2022-12-23T17:32:24.976Z,45.32
2022-12-23T17:33:29.640Z,44.75
2022-12-23T17:34:31.561Z,43.92
2022-12-23T17:35:33.441Z,45.61
2022-12-23T17:36:35.611Z,41.79
2022-12-23T17:37:38.617Z,41.07
2022-12-23T17:38:40.648Z,44.37
2022-12-23T17:39:43.748Z,43.21
2022-12-23T17:40:47.560Z,45.89
2022-12-23T17:41:51.052Z,45.15
2022-12-23T17:42:52.965Z,48.20
2022-12-23T17:43:56.374Z,51.32
2022-12-23T17:44:58.276Z,50.81
2022-12-23T17:46:00.222Z,50.58
2022-12-23T17:47:06.144Z,49.87
2022-12-23T17:48:16.305Z,49.40
2022-12-23T17:49:14.515Z,49.14
2022-12-23T17:50:17.369Z,46.57
2022-12-23T17:51:22.066Z,48.21
2022-12-23T17:52:25.060Z,45.01
2022-12-23T17:53:27.085Z,45.39
2022-12-23T17:54:29.097Z,44.49
2022-12-23T17:55:31.468Z,43.55
2022-12-23T17:56:33.556Z,45.21
2022-12-23T17:57:35.525Z,46.11
2022-12-23T17:58:37.520Z,44.10
2022-12-23T17:59:39.454Z,45.32
2022-12-23T18:00:41.786Z,43.17
2022-12-23T18:01:44.081Z,43.52
2022-12-23T18:02:46.791Z,44.79
2022-12-23T18:03:49.490Z,44.70
2022-12-23T18:04:51.902Z,44.25
2022-12-23T18:06:01.124Z,46.49
2022-12-23T18:06:57.742Z,45.90
2022-12-23T18:08:01.528Z,45.87
2022-12-23T18:09:03.588Z,45.47
2022-12-23T18:10:08.814Z,44.56
2022-12-23T18:13:32.941Z,42.83
2022-12-23T18:14:35.002Z,44.18
2022-12-23T18:15:41.083Z,44.72
2022-12-23T18:16:43.256Z,43.07
2022-12-23T18:17:45.441Z,43.91
2022-12-23T18:18:47.565Z,44.41
2022-12-23T18:19:49.756Z,44.82
2022-12-23T18:20:53.932Z,44.48
2022-12-23T18:21:56.219Z,43.74
2022-12-23T18:22:59.204Z,41.81
2022-12-23T18:24:01.259Z,43.72
2022-12-23T18:25:04.073Z,44.31
2022-12-23T18:26:06.463Z,41.64
2022-12-23T18:27:17.560Z,44.08
2022-12-23T18:28:20.059Z,43.27
2022-12-23T18:29:21.954Z,42.49
2022-12-23T18:30:23.997Z,42.36
2022-12-23T18:31:25.932Z,45.39
2022-12-23T18:32:28.677Z,44.27
2022-12-23T18:33:30.568Z,42.61
2022-12-23T18:34:32.540Z,44.06
2022-12-23T18:35:38.739Z,45.86
2022-12-23T18:36:41.181Z,45.31
2022-12-23T18:37:43.117Z,43.91
2022-12-23T18:38:45.151Z,44.55
2022-12-23T18:39:48.163Z,43.34
2022-12-23T18:40:50.607Z,44.28
2022-12-23T18:41:52.592Z,44.18
2022-12-23T18:42:54.673Z,43.75
2022-12-23T18:43:56.557Z,43.59
2022-12-23T18:44:58.439Z,42.91
2022-12-23T18:46:00.564Z,45.48
2022-12-23T18:47:02.635Z,42.65
2022-12-23T18:48:06.715Z,43.03
2022-12-23T18:49:08.760Z,42.48
2022-12-23T18:50:10.818Z,41.93
2022-12-23T18:51:18.460Z,44.13
2022-12-23T18:52:20.530Z,43.72
2022-12-23T18:53:25.188Z,43.41
2022-12-23T18:54:27.352Z,42.12
2022-12-23T18:55:29.825Z,42.17
2022-12-23T18:56:31.999Z,43.05
2022-12-23T18:57:33.991Z,43.54
2022-12-23T18:58:36.013Z,44.05
2022-12-23T18:59:37.925Z,44.04
2022-12-23T19:00:40.758Z,41.91
2022-12-23T19:01:44.135Z,42.35
2022-12-23T19:02:48.134Z,41.44
2022-12-23T19:03:50.216Z,42.84
2022-12-23T19:04:52.101Z,42.25
2022-12-23T19:05:56.124Z,42.66
2022-12-23T19:06:58.789Z,43.16
2022-12-23T19:08:00.706Z,42.71
2022-12-23T19:09:03.316Z,42.97
2022-12-23T19:10:09.320Z,42.24
2022-12-23T19:11:13.703Z,43.76
2022-12-23T19:12:15.726Z,40.79
2022-12-23T19:13:18.800Z,41.97
2022-12-23T19:14:20.969Z,43.13
2022-12-23T19:15:23.355Z,43.01
2022-12-23T19:16:25.728Z,42.17
2022-12-23T19:17:28.473Z,43.77
2022-12-23T19:18:30.469Z,44.00
2022-12-23T19:19:32.576Z,44.98
2022-12-23T19:20:34.824Z,44.71
2022-12-23T19:21:36.801Z,45.23
2022-12-23T19:22:39.900Z,44.69
2022-12-23T19:23:42.698Z,45.21
2022-12-23T19:25:03.851Z,45.36
2022-12-23T19:25:54.883Z,45.80
2022-12-23T19:26:52.639Z,47.19
2022-12-23T19:27:56.036Z,48.22
2022-12-23T19:28:58.030Z,48.91
2022-12-23T19:29:59.895Z,48.34
2022-12-23T19:31:10.838Z,48.04
2022-12-23T19:32:12.902Z,51.50
2022-12-23T19:33:15.146Z,50.72
2022-12-23T19:34:17.814Z,48.70
2022-12-23T19:35:19.810Z,48.97
2022-12-23T19:36:22.531Z,46.26
2022-12-23T19:37:25.631Z,46.69
2022-12-23T19:38:27.496Z,48.53
2022-12-23T19:39:29.483Z,47.71
2022-12-23T19:40:31.698Z,46.01
2022-12-23T19:41:33.580Z,47.23
2022-12-23T19:42:39.576Z,45.98
2022-12-23T19:43:44.214Z,45.59
2022-12-23T19:44:46.118Z,46.42
2022-12-23T19:45:56.710Z,45.15
2022-12-23T19:46:58.901Z,44.32
2022-12-23T19:48:01.563Z,44.98
2022-12-23T19:49:04.293Z,45.21
2022-12-23T19:50:08.271Z,43.71
2022-12-23T19:51:12.599Z,42.77
2022-12-23T19:52:14.519Z,44.00
2022-12-23T19:53:16.384Z,43.96
2022-12-23T19:54:18.861Z,43.96
2022-12-23T19:55:21.004Z,43.35
2022-12-23T19:56:23.109Z,43.40
2022-12-23T19:57:25.396Z,45.03
2022-12-23T19:58:30.064Z,43.23
2022-12-23T19:59:32.545Z,45.06
2022-12-23T20:00:34.559Z,44.94
2022-12-23T20:01:36.852Z,44.06
2022-12-23T20:02:39.498Z,44.96
2022-12-23T20:03:42.556Z,45.56
2022-12-23T20:04:44.942Z,44.35
2022-12-23T20:05:49.602Z,43.83
2022-12-23T20:06:51.787Z,43.28
2022-12-23T20:07:53.678Z,43.43
2022-12-23T20:09:00.611Z,46.37
2022-12-23T20:10:00.408Z,43.27
2022-12-23T20:11:04.567Z,43.61
2022-12-23T20:12:06.991Z,44.56
2022-12-23T20:13:09.996Z,44.65
2022-12-23T20:14:14.959Z,42.27
2022-12-23T20:15:17.279Z,44.17
2022-12-23T20:16:21.328Z,43.49
2022-12-23T20:17:23.400Z,42.94
2022-12-23T20:18:25.373Z,42.47
2022-12-23T20:19:27.476Z,42.75
2022-12-23T20:20:30.682Z,42.58
2022-12-23T20:21:34.002Z,44.59
2022-12-23T20:22:36.113Z,42.14
2022-12-23T20:23:37.978Z,44.04
2022-12-23T20:24:40.175Z,43.79
2022-12-23T20:25:42.429Z,42.37
2022-12-23T20:26:44.716Z,43.60
2022-12-23T20:27:46.607Z,42.17
2022-12-23T20:28:50.620Z,43.24
2022-12-23T20:29:54.381Z,43.20
2022-12-23T20:31:07.711Z,43.17
2022-12-23T20:32:09.925Z,43.27
2022-12-23T20:33:15.134Z,43.09
2022-12-23T20:34:17.139Z,44.59
2022-12-23T20:35:19.729Z,45.32
2022-12-23T20:36:25.048Z,43.23
2022-12-23T20:37:27.081Z,43.17
2022-12-23T20:38:29.429Z,46.13
2022-12-23T20:39:31.401Z,42.92
2022-12-23T20:40:33.515Z,42.17
2022-12-23T20:41:35.505Z,41.49
2022-12-23T20:42:37.627Z,42.47
2022-12-23T20:43:40.149Z,42.97
2022-12-23T20:44:42.651Z,43.51
2022-12-23T20:45:44.663Z,43.26
2022-12-23T20:46:46.863Z,42.97
2022-12-23T20:47:50.675Z,43.92
2022-12-23T20:48:53.422Z,43.82
2022-12-23T20:49:55.563Z,42.03
2022-12-23T20:51:03.716Z,44.07
2022-12-23T20:52:05.874Z,42.86
2022-12-23T20:53:08.860Z,41.57
2022-12-23T20:54:11.575Z,41.57
2022-12-23T20:55:15.316Z,39.81
2022-12-23T20:56:18.268Z,42.06
2022-12-23T20:57:20.170Z,42.52
2022-12-23T20:58:22.148Z,42.67